Time;durP1;ratioP1;P1;durP2;ratioP2;P2;SDS_P1;SDS_P2;PMS_P1;PMS_P2;Temp;Humidity;BMP_temperature;BMP_pressure;BME280_temperature;BME280_humidity;BME280_pressure;Samples;Min_cycle;Max_cycle;Signal;HPM_P1;HPM_P2
2021/12/27 00:00:31;;;;;;;6.35;4.05;;;6.30;58.10;;;;;;5188988;27;35866;-77
2021/12/27 00:03:00;;;;;;;6.15;4.20;;;6.30;58.10;;;;;;5189088;27;34406;-77
2021/12/27 00:05:28;;;;;;;8.00;4.05;;;6.30;58.00;;;;;;5175868;27;34268;-77
2021/12/27 00:07:54;;;;;;;6.60;3.97;;;6.30;58.00;;;;;;5214685;27;34446;-77
2021/12/27 00:10:22;;;;;;;7.75;3.78;;;6.30;58.10;;;;;;5214008;27;34980;-77
2021/12/27 00:12:49;;;;;;;4.32;3.42;;;6.30;58.10;;;;;;5196258;27;34313;-77
2021/12/27 00:15:15;;;;;;;6.43;4.00;;;6.30;58.10;;;;;;5196219;27;34232;-77
2021/12/27 00:17:42;;;;;;;7.47;4.35;;;6.30;58.00;;;;;;5195983;27;34181;-76
2021/12/27 00:20:11;;;;;;;6.70;3.90;;;6.30;58.00;;;;;;5196370;27;34467;-77
2021/12/27 00:22:38;;;;;;;5.00;3.88;;;6.30;58.00;;;;;;5161004;27;34208;-76
2021/12/27 00:25:05;;;;;;;7.20;4.43;;;6.30;58.00;;;;;;5195445;27;34373;-77
2021/12/27 00:27:32;;;;;;;6.53;4.32;;;6.30;58.10;;;;;;5196346;27;34272;-77
2021/12/27 00:29:58;;;;;;;6.30;4.22;;;6.30;58.10;;;;;;5214298;27;34957;-77
2021/12/27 00:32:24;;;;;;;5.90;4.22;;;6.30;58.10;;;;;;5195795;27;34274;-77
2021/12/27 00:34:50;;;;;;;7.13;4.07;;;6.30;58.10;;;;;;5214280;27;34022;-77
2021/12/27 00:37:16;;;;;;;6.60;4.15;;;6.30;58.10;;;;;;5195855;27;34516;-77
2021/12/27 00:39:43;;;;;;;7.05;4.32;;;6.30;58.10;;;;;;5177605;27;35790;-77
2021/12/27 00:42:09;;;;;;;7.80;4.43;;;6.30;58.10;;;;;;5195569;27;34216;-77
2021/12/27 00:44:35;;;;;;;6.95;4.10;;;6.20;58.00;;;;;;5177794;27;34349;-77
2021/12/27 00:47:01;;;;;;;6.60;3.83;;;6.30;58.10;;;;;;5195461;27;34165;-77
2021/12/27 00:49:28;;;;;;;9.80;4.13;;;6.30;58.10;;;;;;5214030;27;35121;-77
2021/12/27 00:51:54;;;;;;;6.97;4.25;;;6.30;58.10;;;;;;5178019;27;34219;-76
2021/12/27 00:54:20;;;;;;;8.50;4.60;;;6.30;58.20;;;;;;5195200;27;34391;-77
2021/12/27 00:56:46;;;;;;;6.75;4.10;;;6.30;58.20;;;;;;5194596;27;34104;-76
2021/12/27 00:59:13;;;;;;;8.50;4.57;;;6.20;58.10;;;;;;5195063;27;35798;-76
2021/12/27 01:01:39;;;;;;;7.70;4.60;;;6.30;58.30;;;;;;5194897;27;34388;-77
2021/12/27 01:04:06;;;;;;;7.70;4.32;;;6.20;58.20;;;;;;5195113;27;34384;-77
2021/12/27 01:06:33;;;;;;;8.48;4.55;;;6.20;58.20;;;;;;5194599;27;34324;-77
2021/12/27 01:08:59;;;;;;;7.93;4.22;;;6.30;58.30;;;;;;5177500;27;35545;-77
2021/12/27 01:11:40;;;;;;;6.53;3.80;;;6.30;58.30;;;;;;5177145;27;34154;-76
2021/12/27 01:14:14;;;;;;;9.73;4.28;;;6.20;58.20;;;;;;5177031;27;34088;-76
2021/12/27 01:16:42;;;;;;;9.43;5.18;;;6.30;58.20;;;;;;5171907;27;34182;-76
2021/12/27 01:19:08;;;;;;;7.38;4.00;;;6.30;58.20;;;;;;5167101;27;35699;-76
2021/12/27 01:21:35;;;;;;;9.88;4.20;;;6.30;58.20;;;;;;5162172;27;34532;-76
2021/12/27 01:24:01;;;;;;;8.43;4.82;;;6.30;58.20;;;;;;5191152;27;34167;-76
2021/12/27 01:26:28;;;;;;;8.65;4.18;;;6.30;58.20;;;;;;5191107;27;34232;-76
2021/12/27 01:28:57;;;;;;;7.88;4.68;;;6.30;58.20;;;;;;5191138;27;35667;-77
2021/12/27 01:31:24;;;;;;;7.45;4.43;;;6.30;58.30;;;;;;5174741;27;34281;-77
2021/12/27 01:33:51;;;;;;;8.95;4.53;;;6.30;58.30;;;;;;5191168;27;34274;-77
2021/12/27 01:36:17;;;;;;;7.50;4.43;;;6.30;58.40;;;;;;5191517;27;34270;-77
2021/12/27 01:38:45;;;;;;;8.75;4.97;;;6.30;58.30;;;;;;5191084;27;35738;-77
2021/12/27 01:41:14;;;;;;;7.72;4.32;;;6.30;58.30;;;;;;5191246;27;34206;-77
2021/12/27 01:43:40;;;;;;;7.57;4.25;;;6.30;58.30;;;;;;5173970;27;34488;-77
2021/12/27 01:46:15;;;;;;;9.75;4.22;;;6.30;58.30;;;;;;5210297;27;34179;-77
2021/12/27 01:48:45;;;;;;;7.22;4.60;;;6.30;58.30;;;;;;5190348;27;36271;-77
2021/12/27 01:51:14;;;;;;;7.93;4.28;;;6.30;58.30;;;;;;5210217;27;34190;-77
2021/12/27 01:53:42;;;;;;;7.10;4.35;;;6.40;58.20;;;;;;5173693;27;34299;-77
2021/12/27 01:56:10;;;;;;;7.43;4.63;;;6.40;58.20;;;;;;5174504;27;34178;-77
2021/12/27 01:58:37;;;;;;;7.70;4.50;;;6.40;58.20;;;;;;5173825;27;36504;-77
2021/12/27 02:01:06;;;;;;;8.57;4.47;;;6.40;58.20;;;;;;5209546;27;34249;-77
2021/12/27 02:03:33;;;;;;;6.88;4.28;;;6.40;58.20;;;;;;5191192;27;34287;-77
2021/12/27 02:06:00;;;;;;;7.93;4.18;;;6.40;58.20;;;;;;5190967;27;34300;-77
2021/12/27 02:08:27;;;;;;;8.18;4.88;;;6.40;58.20;;;;;;5190374;27;36475;-77
2021/12/27 02:10:54;;;;;;;8.82;4.43;;;6.40;58.20;;;;;;5147748;27;34197;-77
2021/12/27 02:13:21;;;;;;;7.22;4.63;;;6.40;58.20;;;;;;5209677;27;34280;-77
2021/12/27 02:15:47;;;;;;;7.00;3.97;;;6.40;58.20;;;;;;5190608;27;34468;-77
2021/12/27 02:18:13;;;;;;;9.18;4.65;;;6.40;58.20;;;;;;5190226;27;36849;-77
2021/12/27 02:20:41;;;;;;;7.93;4.75;;;6.40;58.20;;;;;;5190485;27;34148;-77
2021/12/27 02:23:15;;;;;;;8.45;4.88;;;6.40;58.20;;;;;;5191324;27;34218;-77
2021/12/27 02:25:44;;;;;;;7.90;4.30;;;6.40;58.20;;;;;;5190524;27;34199;-77
2021/12/27 02:28:10;;;;;;;7.18;4.22;;;6.40;58.90;;;;;;5172688;27;35900;-76
2021/12/27 02:30:40;;;;;;;8.70;4.70;;;6.40;58.30;;;;;;5172817;27;34610;-76
2021/12/27 02:33:07;;;;;;;7.05;4.00;;;6.40;58.20;;;;;;5172371;27;34390;-76
2021/12/27 02:35:40;;;;;;;7.20;4.18;;;6.40;58.20;;;;;;5209428;27;34092;-77
2021/12/27 02:38:10;;;;;;;8.10;4.68;;;6.40;58.20;;;;;;5189436;27;36569;-76
2021/12/27 02:40:37;;;;;;;10.45;4.22;;;6.40;58.20;;;;;;5190486;27;34500;-77
2021/12/27 02:43:12;;;;;;;7.18;4.20;;;6.40;58.20;;;;;;5155827;27;34237;-76
2021/12/27 02:45:41;;;;;;;9.85;4.55;;;6.40;58.20;;;;;;5189955;27;34117;-76
2021/12/27 02:48:08;;;;;;;8.32;4.25;;;6.40;58.30;;;;;;5190471;27;34408;-77
2021/12/27 02:50:36;;;;;;;7.13;3.65;;;6.40;58.20;;;;;;5190315;27;34120;-76
2021/12/27 02:53:04;;;;;;;6.53;4.03;;;6.40;58.20;;;;;;5190282;27;34356;-76
2021/12/27 02:55:30;;;;;;;7.85;3.97;;;6.40;58.30;;;;;;5190277;27;34368;-77
2021/12/27 02:57:57;;;;;;;9.27;4.20;;;6.40;58.30;;;;;;5208381;27;34322;-76
2021/12/27 03:00:27;;;;;;;7.40;3.80;;;6.40;58.30;;;;;;5190012;27;34383;-76
2021/12/27 03:02:55;;;;;;;5.95;3.83;;;6.40;58.30;;;;;;5173382;27;34313;-76
2021/12/27 03:05:24;;;;;;;8.43;3.83;;;6.40;58.30;;;;;;5190007;27;34298;-76
2021/12/27 03:07:52;;;;;;;7.15;3.97;;;6.40;58.30;;;;;;5208246;27;34412;-76
2021/12/27 03:10:22;;;;;;;6.32;3.42;;;6.40;58.30;;;;;;5189659;27;34446;-76
2021/12/27 03:12:49;;;;;;;7.10;4.03;;;6.40;58.30;;;;;;5190107;27;34458;-76
2021/12/27 03:15:18;;;;;;;8.20;4.10;;;6.40;58.30;;;;;;5172263;27;34391;-76
2021/12/27 03:17:45;;;;;;;10.32;4.03;;;6.40;58.30;;;;;;5208642;27;34429;-76
2021/12/27 03:20:14;;;;;;;5.97;3.50;;;6.40;58.30;;;;;;5171810;27;34298;-76
2021/12/27 03:22:41;;;;;;;6.95;3.78;;;6.40;58.40;;;;;;5171729;27;34223;-76
2021/12/27 03:25:10;;;;;;;9.65;3.92;;;6.40;58.30;;;;;;5189855;27;34560;-76
2021/12/27 03:27:36;;;;;;;5.28;3.28;;;6.40;58.30;;;;;;5207587;27;34399;-76
2021/12/27 03:30:06;;;;;;;6.43;3.80;;;6.40;58.30;;;;;;5189683;27;34374;-76
2021/12/27 03:32:34;;;;;;;8.75;3.72;;;6.40;58.30;;;;;;5189596;27;34171;-76
2021/12/27 03:35:03;;;;;;;7.68;4.30;;;6.40;58.30;;;;;;5189829;27;34524;-76
2021/12/27 03:37:31;;;;;;;10.20;4.53;;;6.40;58.40;;;;;;5171520;27;36526;-76
2021/12/27 03:39:57;;;;;;;8.45;4.47;;;6.40;58.30;;;;;;5206980;27;34402;-77
2021/12/27 03:42:23;;;;;;;12.68;4.22;;;6.40;58.40;;;;;;5172017;27;34192;-76
2021/12/27 03:44:49;;;;;;;7.60;4.38;;;6.40;58.40;;;;;;5207988;27;34131;-76
2021/12/27 03:47:17;;;;;;;7.72;4.22;;;6.50;58.50;;;;;;5188673;27;36037;-76
2021/12/27 03:49:43;;;;;;;8.25;4.20;;;6.50;58.50;;;;;;5189368;27;34230;-76
2021/12/27 03:52:09;;;;;;;9.98;5.05;;;6.50;58.40;;;;;;5208545;27;34164;-76
2021/12/27 03:54:35;;;;;;;7.32;4.22;;;6.50;58.40;;;;;;5207848;27;34165;-76
2021/12/27 03:57:01;;;;;;;10.57;4.95;;;6.50;58.50;;;;;;5188365;27;36966;-76
2021/12/27 04:02:10;;;;;;;8.30;4.50;;;6.50;58.50;;;;;;5207698;27;34095;-76
2021/12/27 04:04:36;;;;;;;9.80;4.50;;;6.50;58.50;;;;;;5171213;27;34197;-76
2021/12/27 04:07:03;;;;;;;7.15;4.32;;;6.50;59.20;;;;;;5171914;27;35879;-76
2021/12/27 04:09:29;;;;;;;9.82;4.80;;;6.50;58.50;;;;;;5188810;27;34318;-76
2021/12/27 04:11:55;;;;;;;10.82;4.78;;;6.50;58.50;;;;;;5188622;27;34080;-76
2021/12/27 04:14:21;;;;;;;9.32;4.95;;;6.50;58.50;;;;;;5188676;27;34527;-76
2021/12/27 04:16:48;;;;;;;9.43;4.50;;;6.50;58.50;;;;;;5207392;27;34493;-76
2021/12/27 04:19:14;;;;;;;8.65;4.50;;;6.50;58.60;;;;;;5171369;27;34403;-77
2021/12/27 04:21:40;;;;;;;10.32;4.75;;;6.50;58.60;;;;;;5188735;27;34403;-76
2021/12/27 04:24:07;;;;;;;11.40;5.32;;;6.50;58.60;;;;;;5188591;27;34586;-76
2021/12/27 04:26:33;;;;;;;8.57;5.00;;;6.50;58.60;;;;;;5207123;27;34262;-76
2021/12/27 04:28:59;;;;;;;8.75;4.60;;;6.50;58.60;;;;;;5207199;27;34347;-76
2021/12/27 04:31:25;;;;;;;11.20;5.18;;;6.50;58.60;;;;;;5207099;27;34360;-76
2021/12/27 04:33:51;;;;;;;7.47;4.20;;;6.50;58.60;;;;;;5188470;27;34441;-76
2021/12/27 04:36:18;;;;;;;8.93;4.90;;;6.50;58.60;;;;;;5188125;27;35598;-76
2021/12/27 04:38:44;;;;;;;9.65;4.60;;;6.50;58.60;;;;;;5207301;27;34387;-77
2021/12/27 04:41:13;;;;;;;11.02;4.65;;;6.50;58.70;;;;;;5188165;27;34907;-77
2021/12/27 04:43:39;;;;;;;8.07;4.70;;;6.50;58.60;;;;;;5171164;27;34245;-77
2021/12/27 04:46:05;;;;;;;8.93;4.20;;;6.50;58.60;;;;;;5187908;27;35725;-77
2021/12/27 04:48:32;;;;;;;10.02;4.63;;;6.50;58.60;;;;;;5187636;27;34184;-77
2021/12/27 04:50:58;;;;;;;11.18;5.07;;;6.50;58.60;;;;;;5207960;27;34130;-77
2021/12/27 04:53:24;;;;;;;8.43;4.85;;;6.60;58.60;;;;;;5210781;27;34109;-77
2021/12/27 04:55:51;;;;;;;9.75;4.57;;;6.60;58.60;;;;;;5191719;27;34395;-77
2021/12/27 04:58:21;;;;;;;9.35;5.20;;;6.50;58.60;;;;;;5191635;27;34135;-77
2021/12/27 05:00:47;;;;;;;8.77;4.50;;;6.50;58.70;;;;;;5173726;27;34486;-76
2021/12/27 05:03:13;;;;;;;6.88;4.05;;;6.50;58.70;;;;;;5191296;27;34141;-76
2021/12/27 05:05:43;;;;;;;9.48;4.93;;;6.50;58.70;;;;;;5191140;27;35895;-76
2021/12/27 05:08:11;;;;;;;7.95;4.63;;;6.50;58.70;;;;;;5191435;27;34189;-76
2021/12/27 05:10:38;;;;;;;7.75;4.50;;;6.60;58.70;;;;;;5210064;27;34156;-77
2021/12/27 05:13:05;;;;;;;10.27;5.05;;;6.60;58.70;;;;;;5210792;27;34058;-76
2021/12/27 05:15:31;;;;;;;11.07;4.93;;;6.60;58.60;;;;;;5209647;27;34434;-76
2021/12/27 05:17:57;;;;;;;10.80;4.90;;;6.60;58.70;;;;;;5210185;27;34239;-76
2021/12/27 05:20:23;;;;;;;14.23;5.07;;;6.60;58.60;;;;;;5192237;27;34452;-76
2021/12/27 05:22:50;;;;;;;9.93;4.68;;;6.60;58.70;;;;;;5156196;27;34082;-76
2021/12/27 05:25:16;;;;;;;9.93;4.65;;;6.60;58.70;;;;;;5173735;27;35546;-77
2021/12/27 05:27:43;;;;;;;7.28;3.97;;;6.60;58.70;;;;;;5191240;27;34075;-76
2021/12/27 05:30:11;;;;;;;9.40;4.65;;;6.60;58.70;;;;;;5210132;27;34169;-77
2021/12/27 05:32:39;;;;;;;6.40;3.97;;;6.60;58.70;;;;;;5191301;27;34185;-77
2021/12/27 05:35:06;;;;;;;7.78;4.35;;;6.60;58.70;;;;;;5209471;27;34142;-77
2021/12/27 05:37:33;;;;;;;10.82;4.72;;;6.60;58.70;;;;;;5209671;27;34109;-77
2021/12/27 05:40:04;;;;;;;7.45;4.22;;;6.60;58.70;;;;;;5186779;27;34195;-77
2021/12/27 05:42:34;;;;;;;7.20;4.25;;;6.60;58.70;;;;;;5206254;27;34391;-77
2021/12/27 05:45:01;;;;;;;5.75;3.67;;;6.60;58.70;;;;;;5190893;27;35602;-77
2021/12/27 05:47:27;;;;;;;8.35;3.97;;;6.70;58.80;;;;;;5191486;27;34298;-76
2021/12/27 05:49:54;;;;;;;6.65;4.30;;;6.70;58.80;;;;;;5209824;27;34302;-77
2021/12/27 05:52:20;;;;;;;7.90;4.15;;;6.70;58.80;;;;;;5190295;27;34515;-77
2021/12/27 05:54:47;;;;;;;7.30;4.20;;;6.70;58.70;;;;;;5208695;27;34337;-77
2021/12/27 05:57:13;;;;;;;7.43;4.35;;;6.70;58.70;;;;;;5209911;27;34317;-76
2021/12/27 05:59:39;;;;;;;6.28;3.58;;;6.70;58.70;;;;;;5209669;27;34213;-76
2021/12/27 06:02:05;;;;;;;5.75;3.75;;;6.70;58.70;;;;;;5190398;27;34190;-77
2021/12/27 06:04:31;;;;;;;6.63;3.72;;;6.80;58.70;;;;;;5186145;27;35672;-77
2021/12/27 06:06:57;;;;;;;7.80;4.10;;;6.80;58.70;;;;;;5160450;27;34158;-77
2021/12/27 06:09:23;;;;;;;5.80;3.50;;;6.80;58.70;;;;;;5190742;27;34363;-77
2021/12/27 06:11:49;;;;;;;6.60;4.05;;;6.80;58.70;;;;;;5209090;27;34536;-77
2021/12/27 06:14:15;;;;;;;4.80;3.22;;;6.80;58.70;;;;;;5208777;27;35170;-76
2021/12/27 06:16:41;;;;;;;5.90;3.90;;;6.80;58.70;;;;;;5177313;27;34387;-77
2021/12/27 06:19:08;;;;;;;4.93;3.00;;;6.80;58.70;;;;;;5184441;27;34315;-77
2021/12/27 06:21:34;;;;;;;6.70;3.58;;;6.80;58.60;;;;;;5190585;27;34258;-77
2021/12/27 06:24:00;;;;;;;5.53;3.30;;;6.80;58.70;;;;;;5190021;27;35477;-77
2021/12/27 06:26:27;;;;;;;4.97;3.10;;;6.80;58.70;;;;;;5189756;27;34262;-77
2021/12/27 06:28:54;;;;;;;7.30;3.85;;;6.80;58.70;;;;;;5190350;27;34260;-77
2021/12/27 06:31:20;;;;;;;5.68;3.63;;;6.80;58.70;;;;;;5155636;27;34454;-76
2021/12/27 06:33:47;;;;;;;6.70;3.45;;;6.80;58.70;;;;;;5189522;27;35534;-76
2021/12/27 06:36:13;;;;;;;4.63;3.22;;;6.80;58.80;;;;;;5209094;27;34090;-76
2021/12/27 06:38:39;;;;;;;4.68;3.08;;;6.80;58.80;;;;;;5189121;27;34184;-76
2021/12/27 06:41:05;;;;;;;6.22;3.17;;;6.80;58.90;;;;;;5190327;27;34234;-77
2021/12/27 06:43:31;;;;;;;5.55;3.42;;;6.80;58.80;;;;;;5189274;27;35734;-76
2021/12/27 06:46:00;;;;;;;6.15;3.40;;;6.80;58.80;;;;;;5189975;27;34308;-76
2021/12/27 06:48:26;;;;;;;5.10;3.40;;;6.80;58.90;;;;;;5189774;27;34177;-76
2021/12/27 06:50:53;;;;;;;7.03;3.50;;;6.80;59.00;;;;;;5208619;27;34506;-76
2021/12/27 06:53:19;;;;;;;5.30;3.47;;;6.80;58.90;;;;;;5172200;27;36226;-77
2021/12/27 06:55:47;;;;;;;5.43;2.92;;;6.80;58.90;;;;;;5190179;27;34297;-76
2021/12/27 06:58:14;;;;;;;5.75;3.40;;;6.80;58.90;;;;;;5173102;27;34133;-76
2021/12/27 07:00:41;;;;;;;5.10;3.10;;;6.80;58.90;;;;;;5190199;27;34200;-77
2021/12/27 07:03:07;;;;;;;5.78;3.45;;;6.80;58.90;;;;;;5207836;27;34351;-77
2021/12/27 07:05:34;;;;;;;5.95;3.42;;;6.80;58.90;;;;;;5189148;27;34384;-77
2021/12/27 07:08:00;;;;;;;5.47;3.42;;;6.90;58.90;;;;;;5189529;27;34250;-77
2021/12/27 07:10:26;;;;;;;5.88;3.72;;;6.80;58.80;;;;;;5172171;27;34267;-77
2021/12/27 07:12:52;;;;;;;5.30;3.40;;;6.90;58.90;;;;;;5171379;27;35576;-77
2021/12/27 07:15:18;;;;;;;6.25;3.15;;;6.90;58.90;;;;;;5188352;27;34310;-77
2021/12/27 07:17:45;;;;;;;5.18;3.13;;;6.90;58.90;;;;;;5189151;27;34406;-76
2021/12/27 07:20:11;;;;;;;5.90;3.22;;;6.90;58.90;;;;;;5189175;27;34367;-76
2021/12/27 07:22:38;;;;;;;7.25;3.85;;;6.90;58.90;;;;;;5188636;27;36652;-77
2021/12/27 07:25:04;;;;;;;5.05;3.42;;;6.90;58.90;;;;;;5189649;27;34139;-77
2021/12/27 07:27:30;;;;;;;5.75;3.33;;;7.00;58.90;;;;;;5189938;27;34389;-77
2021/12/27 07:29:56;;;;;;;4.88;3.28;;;6.90;58.90;;;;;;5189422;27;34462;-76
2021/12/27 07:32:23;;;;;;;6.15;3.17;;;7.00;58.80;;;;;;5188596;27;35612;-76
2021/12/27 07:34:49;;;;;;;5.07;3.28;;;7.00;58.90;;;;;;5189068;27;34432;-77
2021/12/27 07:37:16;;;;;;;5.78;3.28;;;7.00;58.90;;;;;;5171447;27;34307;-77
2021/12/27 07:39:43;;;;;;;5.70;3.20;;;6.90;58.90;;;;;;5188770;27;34176;-76
2021/12/27 07:42:09;;;;;;;6.80;3.90;;;7.00;58.90;;;;;;5188814;27;35753;-76
2021/12/27 07:44:36;;;;;;;5.18;3.15;;;6.90;58.90;;;;;;5180156;27;34167;-77
2021/12/27 07:47:02;;;;;;;3.47;2.70;;;7.00;58.90;;;;;;5208378;27;34341;-76
2021/12/27 07:49:28;;;;;;;5.35;3.38;;;7.00;58.90;;;;;;5171697;27;34485;-77
2021/12/27 07:51:54;;;;;;;4.35;3.08;;;7.00;58.90;;;;;;5188649;27;37060;-76
2021/12/27 07:54:20;;;;;;;4.22;3.10;;;7.00;59.00;;;;;;5207641;27;34353;-77
2021/12/27 07:56:46;;;;;;;5.72;3.08;;;7.00;59.00;;;;;;5188706;27;34453;-77
2021/12/27 07:59:12;;;;;;;6.65;3.13;;;7.00;58.90;;;;;;5188416;27;34474;-77
2021/12/27 08:01:39;;;;;;;4.43;2.72;;;7.10;59.00;;;;;;5207663;27;34267;-76
2021/12/27 08:04:06;;;;;;;5.35;2.92;;;7.10;59.00;;;;;;5189018;27;34182;-76
2021/12/27 08:06:33;;;;;;;3.90;2.75;;;7.10;59.00;;;;;;5171090;27;34173;-76
2021/12/27 08:08:59;;;;;;;5.55;3.33;;;7.10;59.70;;;;;;5207643;27;34209;-77
2021/12/27 08:11:26;;;;;;;4.72;3.28;;;7.10;59.00;;;;;;5188469;27;36958;-77
2021/12/27 08:13:53;;;;;;;4.10;2.72;;;7.10;59.00;;;;;;5187987;27;34116;-77
2021/12/27 08:16:23;;;;;;;5.63;3.13;;;7.10;59.00;;;;;;5171152;27;34290;-76
2021/12/27 08:18:51;;;;;;;5.72;3.40;;;7.10;59.00;;;;;;5207215;27;34198;-76
2021/12/27 08:21:18;;;;;;;5.72;3.25;;;7.10;59.00;;;;;;5187513;27;35495;-77
2021/12/27 08:23:44;;;;;;;4.32;2.88;;;7.10;59.10;;;;;;5188783;27;34146;-77
2021/12/27 08:26:10;;;;;;;4.40;3.00;;;7.10;59.20;;;;;;5189599;27;34343;-77
2021/12/27 08:28:36;;;;;;;6.43;3.10;;;7.10;59.20;;;;;;5191805;27;34203;-77
2021/12/27 08:31:02;;;;;;;4.78;3.78;;;7.20;59.20;;;;;;5164868;27;35246;-77
2021/12/27 08:33:28;;;;;;;8.43;3.70;;;7.20;59.10;;;;;;5156891;27;34261;-76
2021/12/27 08:35:55;;;;;;;8.38;4.38;;;7.20;59.10;;;;;;5174209;27;34145;-77
2021/12/27 08:38:21;;;;;;;4.93;3.35;;;7.20;59.10;;;;;;5191971;27;34164;-77
2021/12/27 08:40:47;;;;;;;6.32;3.60;;;7.20;59.10;;;;;;5210198;27;34320;-76
2021/12/27 08:43:14;;;;;;;5.05;3.40;;;7.30;59.20;;;;;;5174391;27;34079;-76
2021/12/27 08:45:40;;;;;;;5.93;3.88;;;7.30;59.20;;;;;;5183135;27;34223;-76
2021/12/27 08:48:06;;;;;;;5.32;3.65;;;7.30;59.10;;;;;;5174454;27;34172;-76
2021/12/27 08:50:32;;;;;;;6.40;3.92;;;7.40;59.10;;;;;;5191194;27;35657;-77
2021/12/27 08:52:58;;;;;;;5.05;3.30;;;7.40;59.00;;;;;;5211359;27;34195;-77
2021/12/27 08:55:24;;;;;;;5.40;3.47;;;7.50;59.10;;;;;;5193151;27;34222;-76
2021/12/27 08:57:50;;;;;;;5.53;3.47;;;7.50;59.00;;;;;;5193733;27;34433;-77
2021/12/27 09:00:18;;;;;;;4.68;3.08;;;7.50;59.10;;;;;;5192777;27;36151;-77
2021/12/27 09:02:45;;;;;;;3.50;2.95;;;7.50;59.10;;;;;;5184879;27;34045;-77
2021/12/27 09:05:12;;;;;;;3.67;2.83;;;7.50;59.20;;;;;;5192871;27;34204;-77
2021/12/27 09:07:38;;;;;;;4.75;3.28;;;7.50;59.20;;;;;;5193338;27;34265;-77
2021/12/27 09:10:05;;;;;;;4.75;3.35;;;7.60;59.20;;;;;;5175193;27;36330;-77
2021/12/27 09:12:32;;;;;;;5.88;3.65;;;7.60;59.20;;;;;;5192999;27;34248;-77
2021/12/27 09:14:58;;;;;;;5.82;4.05;;;7.60;59.10;;;;;;5192792;27;34217;-76
2021/12/27 09:17:24;;;;;;;5.53;4.00;;;7.60;59.10;;;;;;5211943;27;34177;-77
2021/12/27 09:19:50;;;;;;;5.50;3.95;;;7.70;59.20;;;;;;5193107;27;34288;-77
2021/12/27 09:22:18;;;;;;;6.50;3.92;;;7.70;59.10;;;;;;5167810;27;34172;-76
2021/12/27 09:24:45;;;;;;;6.18;4.10;;;7.70;59.10;;;;;;5185416;27;34403;-77
2021/12/27 09:27:29;;;;;;;7.45;3.97;;;7.80;59.20;;;;;;5211667;27;34070;-77
2021/12/27 09:29:55;;;;;;;6.03;3.75;;;7.90;59.40;;;;;;5210235;27;35406;-77
2021/12/27 09:32:22;;;;;;;4.85;3.80;;;7.90;59.30;;;;;;5191135;27;34454;-77
2021/12/27 09:34:48;;;;;;;5.57;3.08;;;7.90;59.20;;;;;;5190629;27;34097;-77
2021/12/27 09:37:14;;;;;;;4.00;3.25;;;8.00;59.20;;;;;;5190207;27;34250;-77
2021/12/27 09:39:40;;;;;;;4.05;2.75;;;8.00;59.10;;;;;;5175816;27;35861;-76
2021/12/27 09:42:06;;;;;;;3.35;3.03;;;8.00;59.00;;;;;;5169475;27;34344;-77
2021/12/27 09:44:33;;;;;;;7.03;3.15;;;8.10;59.10;;;;;;5169211;27;34236;-77
2021/12/27 09:46:59;;;;;;;3.88;3.00;;;8.10;59.10;;;;;;5188771;27;34199;-77
2021/12/27 09:49:29;;;;;;;4.43;3.28;;;8.20;59.10;;;;;;5188470;27;34739;-77
2021/12/27 09:51:58;;;;;;;4.88;3.10;;;8.20;59.00;;;;;;5169568;27;34243;-77
2021/12/27 09:54:27;;;;;;;5.60;3.08;;;8.30;59.10;;;;;;5170396;27;34346;-77
2021/12/27 09:56:53;;;;;;;5.38;3.53;;;8.30;59.10;;;;;;5151234;27;34387;-77
2021/12/27 09:59:20;;;;;;;3.97;3.25;;;8.40;59.10;;;;;;5151761;27;36419;-77
2021/12/27 10:01:47;;;;;;;2.95;2.65;;;8.40;59.00;;;;;;5165151;27;34197;-77
2021/12/27 10:04:13;;;;;;;4.10;2.80;;;8.50;59.10;;;;;;5170009;27;34221;-77
2021/12/27 10:06:39;;;;;;;3.83;2.70;;;8.50;59.10;;;;;;5169929;27;34495;-77
2021/12/27 10:09:06;;;;;;;4.03;3.00;;;8.60;59.00;;;;;;5169260;27;35706;-77
2021/12/27 10:11:36;;;;;;;3.05;2.70;;;8.60;59.00;;;;;;5152315;27;34321;-77
2021/12/27 10:14:19;;;;;;;4.03;2.80;;;8.60;59.00;;;;;;5188211;27;34297;-77
2021/12/27 10:17:05;;;;;;;3.83;2.97;;;8.70;59.00;;;;;;5152079;27;34399;-77
2021/12/27 10:19:33;;;;;;;3.88;2.88;;;8.70;58.90;;;;;;5152093;27;36314;-77
2021/12/27 10:22:00;;;;;;;4.93;3.60;;;8.70;58.90;;;;;;5169104;27;34357;-77
2021/12/27 10:24:28;;;;;;;5.00;3.13;;;8.80;59.60;;;;;;5145775;27;34150;-77
2021/12/27 10:26:57;;;;;;;4.75;3.17;;;8.80;59.60;;;;;;5151907;27;34521;-77
2021/12/27 10:29:27;;;;;;;3.60;2.78;;;8.80;59.00;;;;;;5150158;27;34296;-77
2021/12/27 10:32:04;;;;;;;3.78;2.80;;;8.90;59.10;;;;;;5134443;27;34157;-77
2021/12/27 10:34:34;;;;;;;4.00;3.13;;;8.90;59.10;;;;;;5152797;27;34362;-77
2021/12/27 10:37:21;;;;;;;5.47;3.38;;;8.90;59.00;;;;;;5152399;27;34388;-77
2021/12/27 10:40:05;;;;;;;5.40;2.92;;;8.90;59.00;;;;;;5153540;27;35776;-78
2021/12/27 10:42:35;;;;;;;5.35;3.38;;;9.00;58.90;;;;;;5187339;27;34284;-77
2021/12/27 10:45:06;;;;;;;3.45;2.88;;;9.10;59.00;;;;;;5151967;27;34328;-77
2021/12/27 10:47:51;;;;;;;5.97;3.08;;;9.10;59.00;;;;;;5168950;27;34237;-77
2021/12/27 10:50:23;;;;;;;4.15;2.90;;;9.20;59.00;;;;;;5168065;27;35894;-77
2021/12/27 10:52:57;;;;;;;3.75;2.80;;;9.20;58.80;;;;;;5152095;27;34382;-77
2021/12/27 10:55:34;;;;;;;4.00;2.92;;;9.20;58.80;;;;;;5168610;27;34209;-77
2021/12/27 10:58:26;;;;;;;4.13;2.92;;;9.30;59.00;;;;;;5170286;27;34175;-77
2021/12/27 11:00:58;;;;;;;4.35;3.45;;;9.30;58.90;;;;;;5186760;27;34534;-77
2021/12/27 11:03:29;;;;;;;4.28;3.08;;;9.40;58.90;;;;;;5168983;27;34430;-77
2021/12/27 11:05:57;;;;;;;7.80;3.03;;;9.40;58.90;;;;;;5135075;27;34313;-77
2021/12/27 11:08:23;;;;;;;5.13;3.05;;;9.40;59.00;;;;;;5151026;27;34164;-77
2021/12/27 11:10:50;;;;;;;4.60;3.17;;;9.50;58.90;;;;;;5168067;27;36761;-77
2021/12/27 11:13:16;;;;;;;4.72;3.28;;;9.50;58.90;;;;;;5187539;27;34222;-77
2021/12/27 11:15:43;;;;;;;3.45;2.80;;;9.60;58.80;;;;;;5168217;27;34263;-77
2021/12/27 11:18:09;;;;;;;5.18;3.42;;;9.70;58.90;;;;;;5187207;27;34187;-77
2021/12/27 11:20:37;;;;;;;5.32;3.70;;;9.70;59.00;;;;;;5150586;27;35769;-77
2021/12/27 11:23:04;;;;;;;4.38;2.75;;;9.80;58.80;;;;;;5186817;27;34207;-77
2021/12/27 11:25:37;;;;;;;5.55;3.42;;;9.80;58.80;;;;;;5168814;27;34159;-77
2021/12/27 11:28:06;;;;;;;6.75;4.25;;;9.90;58.90;;;;;;5150928;27;34225;-77
2021/12/27 11:30:34;;;;;;;4.25;3.70;;;9.90;58.90;;;;;;5167695;27;36736;-77
2021/12/27 11:33:19;;;;;;;4.82;3.50;;;10.00;59.00;;;;;;5187234;27;34449;-77
2021/12/27 11:36:04;;;;;;;7.32;4.55;;;10.00;59.10;;;;;;5168392;27;34520;-77
2021/12/27 11:38:41;;;;;;;5.00;3.95;;;10.10;59.30;;;;;;5170967;27;34408;-77
2021/12/27 11:41:31;;;;;;;4.65;3.50;;;10.10;59.20;;;;;;5171942;27;35741;-77
2021/12/27 11:44:03;;;;;;;7.15;4.45;;;10.10;59.60;;;;;;5171359;27;34185;-77
2021/12/27 11:46:51;;;;;;;4.70;3.70;;;10.10;59.40;;;;;;5189793;27;34260;-76
2021/12/27 11:49:33;;;;;;;7.15;4.13;;;10.10;59.40;;;;;;5168063;27;34636;-77
2021/12/27 11:52:16;;;;;;;10.05;3.78;;;10.20;59.60;;;;;;5163124;27;35822;-77
2021/12/27 11:54:59;;;;;;;8.82;4.47;;;10.20;59.70;;;;;;5172313;27;34156;-76
2021/12/27 11:57:52;;;;;;;7.43;4.28;;;10.20;59.70;;;;;;5189801;27;34336;-77
2021/12/27 12:00:35;;;;;;;9.85;4.35;;;10.30;59.90;;;;;;5170272;27;34555;-76
2021/12/27 12:03:14;;;;;;;8.85;4.07;;;10.40;59.70;;;;;;5132111;27;35617;-76
2021/12/27 12:05:44;;;;;;;6.97;4.38;;;10.40;59.50;;;;;;5163101;27;34427;-76
2021/12/27 12:08:15;;;;;;;6.95;4.07;;;10.40;59.50;;;;;;5188412;27;34180;-76
2021/12/27 12:11:06;;;;;;;7.40;3.92;;;10.50;59.40;;;;;;5189059;27;34495;-76
2021/12/27 12:13:41;;;;;;;5.22;3.72;;;10.60;59.30;;;;;;5207012;27;34229;-76
2021/12/27 12:16:18;;;;;;;5.10;4.10;;;10.70;59.40;;;;;;5171033;27;34266;-76
2021/12/27 12:19:09;;;;;;;5.53;4.20;;;10.80;59.40;;;;;;5158384;27;34500;-76
2021/12/27 12:21:39;;;;;;;6.53;4.43;;;10.80;59.20;;;;;;5154996;27;34155;-76
2021/12/27 12:24:16;;;;;;;6.85;4.50;;;10.80;59.20;;;;;;5188735;27;35530;-77
2021/12/27 12:26:59;;;;;;;6.28;4.18;;;10.90;59.20;;;;;;5172650;27;34256;-76
2021/12/27 12:29:28;;;;;;;7.43;5.00;;;10.90;59.10;;;;;;5188915;27;34331;-76
2021/12/27 12:32:04;;;;;;;6.43;4.20;;;11.00;59.00;;;;;;5167485;27;34073;-76
2021/12/27 12:34:30;;;;;;;5.85;3.55;;;11.00;59.00;;;;;;5162983;27;35728;-76
2021/12/27 12:37:01;;;;;;;6.80;4.57;;;11.00;58.90;;;;;;5189364;27;34216;-76
2021/12/27 12:39:48;;;;;;;6.75;3.85;;;11.00;58.90;;;;;;5171893;27;34050;-77
2021/12/27 12:42:23;;;;;;;8.57;4.03;;;11.00;58.50;;;;;;5171779;27;34056;-76
2021/12/27 12:44:58;;;;;;;6.22;4.18;;;11.10;58.90;;;;;;5178299;27;36059;-77
2021/12/27 12:47:26;;;;;;;7.15;4.20;;;11.00;58.90;;;;;;5172240;27;34097;-76
2021/12/27 12:49:53;;;;;;;7.43;4.72;;;11.00;58.80;;;;;;5189567;27;34270;-76
2021/12/27 12:52:20;;;;;;;6.63;4.25;;;11.00;58.80;;;;;;5190028;27;34029;-76
2021/12/27 12:54:46;;;;;;;4.90;3.63;;;11.00;58.80;;;;;;5189401;27;35959;-76
2021/12/27 12:57:16;;;;;;;6.43;3.50;;;10.90;58.90;;;;;;5208421;27;34022;-77
2021/12/27 12:59:45;;;;;;;5.18;3.33;;;11.00;58.80;;;;;;5207986;27;34417;-76
2021/12/27 13:02:15;;;;;;;5.18;3.33;;;11.00;58.80;;;;;;5172491;27;34109;-77
2021/12/27 13:04:48;;;;;;;5.55;3.47;;;10.90;58.60;;;;;;5154687;27;35927;-77